Ardmore, Oklahoma
Current Conditions -  °F | °C
As of 11:15 AM on Friday 31 Oct 2014 (Local Time) from K1F0 Reporting Station
Haze Haze  
Wind Chill: 55°   Ceiling: Unl
Heat Index: 55°   Visibility: 3mi
Dew Point: 39°   Wind: 9mph
Humidity: 54%   Direction: 30°NNE
Pressure: 30.39"   Gusts: 18mph
Location:  34.17°N, 97.13°W
Report Text: K1F0 311615Z AUTO 03008G16KT 3SM HZ SCT029 13/04 A3039 RMK AO2
Loading
Personal Weather Stations






























Interactive Weather Map
Tropical Storm Tracking
New forecast layout! Learn more

10-Day Weather Forecast

Advertisements
Track Severe Weather on mobile